Time;durP1;ratioP1;P1;durP2;ratioP2;P2;SDS_P1;SDS_P2;PMS_P1;PMS_P2;Temp;Humidity;BMP_temperature;BMP_pressure;BME280_temperature;BME280_humidity;BME280_pressure;Samples;Min_cycle;Max_cycle;Signal;HPM_P1;HPM_P2
2021/08/23 00:00:35;;;;;;;3.07;2.27;;;;;;;33.95;30.57;98386.09;5050724;28;20226;-73
2021/08/23 00:03:03;;;;;;;4.20;2.50;;;;;;;33.91;30.30;98392.69;5042085;28;20200;-72
2021/08/23 00:05:30;;;;;;;4.23;2.33;;;;;;;34.67;29.82;98374.28;5046249;28;20234;-73
2021/08/23 00:07:58;;;;;;;4.67;2.40;;;;;;;34.08;30.54;98376.66;5041955;28;20246;-73
2021/08/23 00:10:26;;;;;;;4.40;2.60;;;;;;;33.30;31.79;98377.78;5050090;28;20230;-73
2021/08/23 00:12:53;;;;;;;5.80;2.47;;;;;;;33.05;31.47;98384.31;5050687;28;20217;-72
2021/08/23 00:15:20;;;;;;;6.40;2.40;;;;;;;33.79;31.18;98374.06;5043454;28;20668;-72
2021/08/23 00:17:48;;;;;;;5.20;2.73;;;;;;;34.76;29.94;98380.50;5045620;28;20225;-72
2021/08/23 00:20:16;;;;;;;4.37;2.60;;;;;;;32.46;32.62;98381.91;5050324;28;20292;-73
2021/08/23 00:22:48;;;;;;;6.83;2.57;;;;;;;33.63;31.17;98377.78;5051561;28;20211;-72
2021/08/23 00:25:17;;;;;;;3.10;2.10;;;;;;;34.07;31.39;98377.00;5039215;28;20209;-72
2021/08/23 00:27:45;;;;;;;2.97;2.10;;;;;;;34.31;31.08;98380.63;5046573;28;20244;-72
2021/08/23 00:30:14;;;;;;;7.43;2.87;;;;;;;34.72;30.23;98377.59;5050984;28;20203;-73
2021/08/23 00:32:41;;;;;;;4.33;2.27;;;;;;;34.51;29.88;98376.16;5045528;28;20225;-73
2021/08/23 00:35:10;;;;;;;3.00;2.13;;;;;;;33.70;31.17;98370.56;5044330;28;20206;-73
2021/08/23 00:37:38;;;;;;;4.37;2.07;;;;;;;33.90;31.25;98372.47;5042821;28;20228;-73
2021/08/23 00:40:06;;;;;;;2.70;2.00;;;;;;;33.48;31.92;98382.03;5046510;28;20211;-73
2021/08/23 00:42:35;;;;;;;4.00;2.40;;;;;;;33.55;31.72;98375.94;5049540;28;20660;-73
2021/08/23 00:45:02;;;;;;;5.87;2.30;;;;;;;34.12;30.84;98365.69;5047681;28;20209;-73
2021/08/23 00:47:29;;;;;;;3.80;2.40;;;;;;;33.22;31.45;98372.28;5050882;28;20234;-73
2021/08/23 00:49:57;;;;;;;5.13;2.50;;;;;;;33.33;32.17;98362.47;5042750;28;20204;-73
2021/08/23 00:52:25;;;;;;;5.17;2.33;;;;;;;33.64;31.50;98368.38;5049109;28;20226;-73
2021/08/23 00:54:52;;;;;;;4.10;2.23;;;;;;;32.86;32.01;98374.88;5042073;28;20217;-73
2021/08/23 00:57:20;;;;;;;3.80;2.77;;;;;;;32.37;33.15;98362.63;5040740;28;20238;-73
2021/08/23 00:59:52;;;;;;;3.33;2.30;;;;;;;33.67;31.09;98362.94;5048458;28;20207;-73
2021/08/23 01:02:21;;;;;;;3.50;2.30;;;;;;;33.81;31.49;98376.50;5043359;28;20208;-73
2021/08/23 01:04:53;;;;;;;4.40;2.17;;;;;;;32.19;33.46;98366.56;5046255;28;20218;-73
2021/08/23 01:07:24;;;;;;;3.43;2.33;;;;;;;33.55;32.01;98367.63;5048846;28;20237;-73
2021/08/23 01:09:56;;;;;;;3.43;2.37;;;;;;;32.16;33.92;98372.78;5040322;28;20210;-73
2021/08/23 01:12:25;;;;;;;4.27;2.17;;;;;;;33.29;32.91;98367.06;5035333;28;20227;-73
2021/08/23 01:14:54;;;;;;;4.03;2.37;;;;;;;33.41;31.39;98379.00;5049597;28;20203;-73
2021/08/23 01:17:21;;;;;;;4.87;2.30;;;;;;;33.68;31.39;98381.16;5050333;28;20218;-73
2021/08/23 01:19:54;;;;;;;3.73;2.10;;;;;;;33.82;30.87;98378.94;5046719;28;20565;-73
2021/08/23 01:22:21;;;;;;;3.77;2.57;;;;;;;33.68;31.26;98377.56;5049329;28;20664;-73
2021/08/23 01:24:50;;;;;;;4.47;2.50;;;;;;;33.56;31.86;98372.84;5051377;28;20210;-73
2021/08/23 01:27:18;;;;;;;5.80;2.50;;;;;;;33.78;31.69;98375.22;5045945;28;20231;-73
2021/08/23 01:29:52;;;;;;;3.23;2.37;;;;;;;33.90;30.84;98382.75;5041275;28;20207;-73
2021/08/23 01:32:22;;;;;;;4.10;2.40;;;;;;;33.54;31.31;98377.88;5045478;28;20240;-73
2021/08/23 01:34:53;;;;;;;4.50;2.30;;;;;;;33.05;32.98;98381.53;5041315;28;20686;-73
2021/08/23 01:37:21;;;;;;;5.37;2.43;;;;;;;33.74;31.60;98377.03;5048475;28;20233;-73
2021/08/23 01:39:48;;;;;;;4.10;2.07;;;;;;;34.03;30.96;98381.63;5043616;28;20200;-73
2021/08/23 01:42:16;;;;;;;3.63;2.13;;;;;;;34.09;30.63;98375.50;5053915;28;20200;-73
2021/08/23 01:44:44;;;;;;;5.30;2.40;;;;;;;34.06;30.52;98381.72;5047831;28;20236;-73
2021/08/23 01:47:11;;;;;;;5.17;2.70;;;;;;;33.78;31.47;98379.91;5050055;28;20226;-73
2021/08/23 01:49:40;;;;;;;5.40;2.40;;;;;;;33.34;31.45;98380.72;5043595;28;20213;-73
2021/08/23 01:52:08;;;;;;;4.53;2.30;;;;;;;33.38;32.12;98373.31;5048396;28;20218;-73
2021/08/23 01:54:36;;;;;;;4.23;2.20;;;;;;;32.68;32.21;98382.44;5048615;28;20583;-73
2021/08/23 01:57:10;;;;;;;5.17;2.30;;;;;;;33.06;31.91;98380.41;5050161;28;20234;-73
2021/08/23 01:59:37;;;;;;;4.60;2.40;;;;;;;33.82;31.38;98378.13;5044688;28;20205;-73
2021/08/23 02:02:05;;;;;;;3.17;2.00;;;;;;;33.72;31.62;98375.75;5044364;28;20205;-73
2021/08/23 02:04:32;;;;;;;4.77;2.00;;;;;;;33.87;31.71;98373.19;5051664;28;20210;-73
2021/08/23 02:07:01;;;;;;;3.13;2.20;;;;;;;33.70;31.49;98372.53;5042811;28;20274;-73
2021/08/23 02:09:28;;;;;;;4.37;2.23;;;;;;;33.50;31.15;98374.19;5051302;28;20219;-73
2021/08/23 02:11:55;;;;;;;3.27;2.03;;;;;;;33.14;31.21;98381.50;5049036;28;20237;-73
2021/08/23 02:14:22;;;;;;;3.90;2.00;;;;;;;32.79;32.41;98374.59;5050458;28;20214;-73
2021/08/23 02:16:50;;;;;;;3.47;2.30;;;;;;;33.76;31.33;98369.19;5042281;28;20245;-73
2021/08/23 02:19:17;;;;;;;3.80;2.00;;;;;;;33.49;31.67;98374.53;5046096;28;20206;-73
2021/08/23 02:21:49;;;;;;;4.13;2.07;;;;;;;33.43;32.06;98362.03;5049729;28;20209;-73
2021/08/23 02:24:18;;;;;;;3.30;2.20;;;;;;;32.73;32.18;98376.72;5049868;28;20689;-73
2021/08/23 02:26:46;;;;;;;4.93;2.30;;;;;;;33.64;31.43;98366.38;5044304;28;20235;-73
2021/08/23 02:29:13;;;;;;;3.93;2.17;;;;;;;33.72;31.57;98364.69;5049910;28;20212;-73
2021/08/23 02:31:41;;;;;;;2.90;2.13;;;;;;;33.94;30.68;98373.41;5052115;28;20588;-73
2021/08/23 02:34:08;;;;;;;3.97;2.03;;;;;;;32.37;32.64;98367.34;5047715;28;20205;-73
2021/08/23 02:36:36;;;;;;;3.33;2.20;;;;;;;33.74;30.79;98370.66;5047425;28;20637;-73
2021/08/23 02:39:05;;;;;;;5.20;2.07;;;;;;;33.48;31.29;98364.59;5042449;28;20207;-73
2021/08/23 02:41:34;;;;;;;5.47;2.13;;;;;;;33.54;31.94;98366.03;5051027;28;20690;-73
2021/08/23 02:44:01;;;;;;;3.60;2.10;;;;;;;33.41;31.29;98364.34;5053738;28;20258;-73
2021/08/23 02:46:28;;;;;;;4.20;2.20;;;;;;;33.56;30.96;98367.31;5052772;28;20592;-73
2021/08/23 02:48:56;;;;;;;4.47;1.93;;;;;;;32.40;32.39;98374.97;5049950;28;20215;-73
2021/08/23 02:51:23;;;;;;;4.53;2.30;;;;;;;33.26;32.01;98368.53;5050708;28;20230;-73
2021/08/23 02:53:50;;;;;;;3.23;2.10;;;;;;;32.63;33.11;98356.97;5049274;28;20213;-73
2021/08/23 02:56:18;;;;;;;3.17;2.10;;;;;;;32.98;31.65;98361.94;5050533;28;20246;-73
2021/08/23 02:58:46;;;;;;;3.20;1.90;;;;;;;32.52;32.70;98370.34;5044892;28;20211;-73
2021/08/23 03:01:13;;;;;;;4.10;2.20;;;;;;;32.76;32.46;98365.00;5048831;28;20198;-73
2021/08/23 03:03:41;;;;;;;4.70;2.17;;;;;;;32.96;32.49;98369.75;5045085;28;20217;-73
2021/08/23 03:06:08;;;;;;;2.73;2.10;;;;;;;33.36;31.93;98359.03;5050447;28;20230;-73
2021/08/23 03:08:35;;;;;;;2.80;2.00;;;;;;;33.76;31.41;98365.63;5048499;28;20209;-73
2021/08/23 03:11:07;;;;;;;5.07;2.40;;;;;;;32.81;32.30;98367.59;5047660;28;20685;-73
2021/08/23 03:13:35;;;;;;;4.47;2.30;;;;;;;33.26;31.54;98376.00;5044684;28;20206;-73
2021/08/23 03:16:04;;;;;;;3.83;2.00;;;;;;;33.67;31.74;98370.44;5051340;28;20214;-73
2021/08/23 03:18:32;;;;;;;3.83;2.27;;;;;;;32.87;32.24;98368.19;5046044;28;20674;-73
2021/08/23 03:20:59;;;;;;;9.87;2.40;;;;;;;33.92;30.71;98366.59;5044881;28;20551;-73
2021/08/23 03:23:27;;;;;;;5.73;3.10;;;;;;;33.57;30.33;98371.69;5048599;28;20210;-73
2021/08/23 03:25:54;;;;;;;4.87;2.40;;;;;;;33.74;30.28;98368.72;5045866;28;20291;-73
2021/08/23 03:28:22;;;;;;;6.00;2.40;;;;;;;33.54;30.74;98361.28;5049030;28;20199;-73
2021/08/23 03:30:49;;;;;;;2.47;1.97;;;;;;;33.38;31.06;98359.47;5045748;28;20582;-73
2021/08/23 03:33:18;;;;;;;3.10;1.93;;;;;;;32.85;32.13;98364.97;5043073;28;20230;-73
2021/08/23 03:35:45;;;;;;;4.80;2.30;;;;;;;32.12;32.77;98369.06;5044734;28;20216;-73
2021/08/23 03:38:13;;;;;;;5.73;2.50;;;;;;;34.23;30.78;98369.63;5049738;28;20226;-73
2021/08/23 03:40:41;;;;;;;4.53;2.30;;;;;;;33.97;30.62;98374.69;5047474;28;20207;-73
2021/08/23 03:43:08;;;;;;;7.77;2.60;;;;;;;32.44;32.72;98365.66;5040956;28;20572;-73
2021/08/23 03:45:36;;;;;;;3.93;2.40;;;;;;;32.73;32.23;98373.16;5047260;28;20203;-73
2021/08/23 03:48:03;;;;;;;4.60;2.20;;;;;;;33.54;31.16;98368.78;5042787;28;20599;-73
2021/08/23 03:50:32;;;;;;;4.27;2.20;;;;;;;33.44;31.33;98374.75;5041815;28;20209;-74
2021/08/23 03:52:59;;;;;;;3.63;2.40;;;;;;;32.15;33.38;98368.41;5046021;28;20238;-73
2021/08/23 03:55:26;;;;;;;3.60;2.43;;;;;;;32.78;32.00;98373.78;5048748;28;20257;-74
2021/08/23 03:57:55;;;;;;;4.17;2.13;;;;;;;33.56;31.08;98361.75;5050342;28;20223;-73
2021/08/23 04:00:22;;;;;;;3.50;1.83;;;;;;;33.34;31.35;98362.13;5047517;28;20210;-73
2021/08/23 04:02:50;;;;;;;5.47;2.47;;;;;;;33.57;31.18;98363.38;5038570;28;20641;-73
2021/08/23 04:06:17;;;;;;;5.00;2.30;;;;;;;-139.38;100.00;63230.50;5039239;28;20210;-74
2021/08/23 04:08:44;;;;;;;1.87;1.73;;;;;;;34.02;30.09;98375.28;5045648;28;20662;-73
2021/08/23 04:11:13;;;;;;;2.73;2.07;;;;;;;34.38;29.49;98382.03;5047092;28;20203;-73
2021/08/23 04:13:40;;;;;;;5.83;2.03;;;;;;;33.89;30.70;98381.94;5050864;28;20213;-73
2021/08/23 04:17:09;;;;;;;7.80;2.20;;;;;;;-139.38;100.00;63230.50;5044729;28;20210;-73
2021/08/23 04:20:35;;;;;;;3.57;1.93;;;;;;;-139.38;100.00;63230.50;5045000;28;20206;-73
2021/08/23 04:24:03;;;;;;;5.53;1.90;;;;;;;-139.38;100.00;63230.50;5049941;28;20198;-73
2021/08/23 04:27:28;;;;;;;3.00;2.10;;;;;;;-139.38;100.00;63230.50;5042156;28;20238;-73
2021/08/23 04:30:54;;;;;;;3.77;2.00;;;;;;;-139.38;100.00;63230.50;5046130;28;20218;-73
2021/08/23 04:33:22;;;;;;;3.23;2.33;;;;;;;33.61;31.16;98383.69;5044062;28;20232;-73
2021/08/23 04:35:49;;;;;;;4.00;1.90;;;;;;;34.14;30.69;98382.78;5041402;28;20685;-73
2021/08/23 04:38:18;;;;;;;4.43;2.13;;;;;;;33.79;30.67;98384.31;5049031;28;20212;-74
2021/08/23 04:40:45;;;;;;;5.17;2.20;;;;;;;33.36;31.50;98392.22;5044754;28;20233;-74
2021/08/23 04:43:12;;;;;;;6.03;2.23;;;;;;;32.71;32.29;98386.50;5046552;28;20777;-73
2021/08/23 04:45:40;;;;;;;4.43;2.10;;;;;;;31.66;33.69;98391.09;5047938;28;20232;-74
2021/08/23 04:49:05;;;;;;;3.73;2.13;;;;;;;-139.38;100.00;63230.50;5046373;28;20239;-73
2021/08/23 04:52:31;;;;;;;5.90;2.30;;;;;;;-139.38;100.00;63230.50;5047338;28;20207;-73
2021/08/23 04:56:00;;;;;;;4.93;2.67;;;;;;;-139.38;100.00;63230.50;5046915;28;20206;-73
2021/08/23 04:59:26;;;;;;;4.50;1.87;;;;;;;-139.38;100.00;63230.50;5048577;28;20212;-70
2021/08/23 05:02:52;;;;;;;4.67;2.10;;;;;;;-139.38;100.00;63230.50;5045127;28;20210;-73
2021/08/23 05:06:18;;;;;;;2.97;2.30;;;;;;;-139.38;100.00;63230.50;5042945;28;20210;-74
2021/08/23 05:09:44;;;;;;;3.37;2.30;;;;;;;-139.38;100.00;63230.50;5047543;28;20209;-73
2021/08/23 05:13:11;;;;;;;4.80;2.63;;;;;;;-139.38;100.00;63230.50;5048552;28;20221;-73
2021/08/23 05:16:37;;;;;;;4.70;3.63;;;;;;;-139.38;100.00;63230.50;5043762;28;20849;-73
2021/08/23 05:20:03;;;;;;;5.10;2.80;;;;;;;-139.38;100.00;63230.50;5049983;28;20215;-73
2021/08/23 05:23:29;;;;;;;8.07;2.83;;;;;;;-139.38;100.00;63230.50;5050374;28;20572;-73
2021/08/23 05:26:54;;;;;;;3.40;2.50;;;;;;;-139.38;100.00;63230.50;5044881;28;20331;-73
2021/08/23 05:30:22;;;;;;;5.87;3.40;;;;;;;-139.38;100.00;63230.50;5045373;28;20213;-73
2021/08/23 05:33:48;;;;;;;3.20;2.73;;;;;;;-139.38;100.00;63230.50;5045754;28;20217;-72
2021/08/23 05:37:13;;;;;;;6.90;2.60;;;;;;;-139.38;100.00;63230.50;5056395;28;20237;-75
2021/08/23 05:40:39;;;;;;;3.67;2.67;;;;;;;-139.38;100.00;63230.50;5058088;28;20213;-80
2021/08/23 05:44:05;;;;;;;6.10;2.90;;;;;;;-139.38;100.00;63230.50;5061709;28;20611;-78
2021/08/23 05:47:32;;;;;;;6.10;3.23;;;;;;;-139.38;100.00;63230.50;5033228;28;20229;-76
2021/08/23 05:50:58;;;;;;;6.27;2.70;;;;;;;-139.38;100.00;63230.50;5047874;28;20663;-75
2021/08/23 05:54:24;;;;;;;4.73;2.60;;;;;;;-139.38;100.00;63230.50;5049718;28;20309;-76
2021/08/23 05:57:50;;;;;;;5.27;2.77;;;;;;;-139.38;100.00;63230.50;5045886;28;20588;-76
2021/08/23 06:01:13;;;;;;;3.77;2.33;;;;;;;-139.38;29.69;63230.50;5047094;28;20212;-74
2021/08/23 06:03:41;;;;;;;8.03;3.20;;;;;;;32.43;34.31;98396.44;5051016;28;20210;-75
2021/08/23 06:06:09;;;;;;;3.07;2.47;;;;;;;34.02;32.01;98397.44;5054071;28;20216;-75
2021/08/23 06:08:37;;;;;;;6.70;3.37;;;;;;;32.26;36.01;98397.31;5051643;28;20213;-75
2021/08/23 06:11:05;;;;;;;6.47;2.50;;;;;;;32.95;34.25;98397.75;5050762;28;20218;-78
2021/08/23 06:13:32;;;;;;;3.63;2.43;;;;;;;31.44;36.93;98396.84;5049126;28;20317;-73
2021/08/23 06:16:02;;;;;;;4.43;2.37;;;;;;;31.25;37.58;98395.53;5047499;28;20233;-73
2021/08/23 06:18:42;;;;;;;3.80;2.30;;;;;;;32.04;35.12;98405.81;5049601;28;20238;-74
2021/08/23 06:21:12;;;;;;;4.00;2.17;;;;;;;31.70;36.61;98396.78;5051826;28;20210;-73
2021/08/23 06:23:41;;;;;;;6.20;2.30;;;;;;;33.56;33.32;98397.75;5041950;28;20260;-73
2021/08/23 06:26:09;;;;;;;3.37;2.33;;;;;;;34.71;31.24;98402.94;5046827;28;20240;-74
2021/08/23 06:29:42;;;;;;;4.07;2.17;;;;;;;-139.38;100.00;63230.50;5047845;28;20215;-73
2021/08/23 06:32:12;;;;;;;6.10;2.27;;;;;;;32.78;34.97;98393.13;5046900;28;20212;-73
2021/08/23 06:34:40;;;;;;;2.27;2.03;;;;;;;34.70;31.97;98396.56;5043453;28;20591;-73
2021/08/23 06:37:22;;;;;;;5.10;2.40;;;;;;;34.86;30.79;98401.44;5047957;28;20243;-74
2021/08/23 06:39:58;;;;;;;5.00;2.40;;;;;;;35.75;30.03;98410.09;5049063;28;20212;-74
2021/08/23 06:42:33;;;;;;;3.97;2.20;;;;;;;33.90;32.43;98399.38;5043659;28;20236;-73
2021/08/23 06:45:09;;;;;;;4.77;2.27;;;;;;;34.24;32.61;98397.00;5042282;28;20282;-74
2021/08/23 06:47:39;;;;;;;8.97;2.70;;;;;;;34.24;32.80;98394.22;5040318;28;20228;-73
2021/08/23 06:50:32;;;;;;;3.53;2.50;;;;;;;34.14;32.39;98404.94;5046600;28;20213;-73
2021/08/23 06:54:09;;;;;;;2.33;1.93;;;;;;;-139.38;100.00;63230.50;5047598;28;20267;-75
2021/08/23 06:58:02;;;;;;;5.40;2.20;;;;;;;-139.38;100.00;63230.50;5051708;28;20222;-72
2021/08/23 07:01:28;;;;;;;5.43;2.47;;;;;;;-139.38;100.00;63230.50;5039977;28;20667;-73
2021/08/23 07:04:54;;;;;;;5.20;2.10;;;;;;;-139.38;100.00;63230.50;5051688;28;20208;-76
2021/08/23 07:08:21;;;;;;;3.80;2.20;;;;;;;-139.38;100.00;63230.50;5048173;28;20320;-79
2021/08/23 07:11:47;;;;;;;5.60;2.43;;;;;;;-139.38;100.00;63230.50;5045987;28;20220;-79
2021/08/23 07:15:13;;;;;;;4.00;2.23;;;;;;;-139.38;100.00;63230.50;5047400;28;21537;-78
2021/08/23 07:18:39;;;;;;;5.93;2.37;;;;;;;-139.38;100.00;63230.50;5047784;28;20232;-78
2021/08/23 07:22:05;;;;;;;3.57;1.90;;;;;;;-139.38;100.00;63230.50;5052589;28;20212;-78
2021/08/23 07:25:33;;;;;;;4.37;2.10;;;;;;;-139.38;100.00;63230.50;5048045;28;20205;-79
2021/08/23 07:28:58;;;;;;;3.53;2.37;;;;;;;-139.38;100.00;63230.50;5052037;28;20536;-79
2021/08/23 07:32:24;;;;;;;3.17;2.00;;;;;;;-139.38;100.00;63230.50;5046765;28;20680;-78
2021/08/23 07:35:51;;;;;;;6.63;2.30;;;;;;;-139.38;100.00;63230.50;5047115;28;20219;-78
2021/08/23 07:39:17;;;;;;;4.47;2.47;;;;;;;-139.38;100.00;63230.50;5049832;28;20233;-80
2021/08/23 07:42:44;;;;;;;6.40;1.93;;;;;;;-139.38;100.00;63230.50;5052893;28;20213;-79
2021/08/23 07:46:10;;;;;;;2.70;1.90;;;;;;;-139.38;100.00;63230.50;5048178;28;20203;-77
2021/08/23 07:49:36;;;;;;;5.40;2.43;;;;;;;-139.38;100.00;63230.50;5054773;28;20670;-78
2021/08/23 07:53:03;;;;;;;5.27;2.10;;;;;;;-139.38;100.00;63230.50;5054871;28;20652;-78
2021/08/23 07:56:30;;;;;;;4.73;1.90;;;;;;;-139.38;100.00;63230.50;5049808;28;20226;-78
2021/08/23 07:59:57;;;;;;;6.67;2.70;;;;;;;-139.38;100.00;63230.50;5054522;28;20206;-78
2021/08/23 08:03:23;;;;;;;4.30;2.40;;;;;;;-139.38;100.00;63230.50;5051734;28;20213;-78
2021/08/23 08:06:49;;;;;;;5.40;2.10;;;;;;;-139.38;100.00;63230.50;5052813;28;20204;-78
2021/08/23 08:10:15;;;;;;;5.50;2.13;;;;;;;-139.38;100.00;63230.50;5050598;28;20265;-78
2021/08/23 08:13:42;;;;;;;5.53;2.23;;;;;;;-139.38;100.00;63230.50;5047903;28;20751;-78
2021/08/23 08:16:10;;;;;;;5.37;2.23;;;;;;;36.66;27.99;98425.63;5047060;28;20228;-77
2021/08/23 08:19:36;;;;;;;7.37;2.10;;;;;;;-139.38;100.00;63230.50;5051917;28;20220;-77
2021/08/23 08:23:02;;;;;;;4.27;1.70;;;;;;;-139.38;100.00;63230.50;5051910;28;20212;-77
2021/08/23 08:26:28;;;;;;;4.17;1.90;;;;;;;-139.38;100.00;63230.50;5050138;28;20209;-78
2021/08/23 08:29:54;;;;;;;3.93;1.87;;;;;;;-139.38;100.00;63230.50;5049940;28;20212;-78
2021/08/23 08:33:21;;;;;;;2.97;1.63;;;;;;;-139.38;100.00;63230.50;5051564;28;20198;-78
2021/08/23 08:36:47;;;;;;;3.93;2.00;;;;;;;-139.38;100.00;63230.50;5051748;28;20230;-77
2021/08/23 08:40:13;;;;;;;5.50;2.10;;;;;;;-139.38;100.00;63230.50;5050775;28;20209;-77
2021/08/23 08:43:39;;;;;;;3.30;1.80;;;;;;;-139.38;100.00;63230.50;5050286;28;20210;-77
2021/08/23 08:47:06;;;;;;;2.27;1.63;;;;;;;-139.38;100.00;63230.50;5048001;28;20206;-75
2021/08/23 08:50:34;;;;;;;4.20;2.30;;;;;;;-139.38;100.00;63230.50;5045204;28;20205;-78
2021/08/23 08:54:00;;;;;;;2.73;1.90;;;;;;;-139.38;100.00;63230.50;5049384;28;20218;-73
2021/08/23 08:57:26;;;;;;;4.33;1.83;;;;;;;-139.38;100.00;63230.50;5048670;28;20229;-74
2021/08/23 09:00:52;;;;;;;3.90;2.07;;;;;;;-139.38;100.00;63230.50;5049330;28;20206;-74
2021/08/23 09:04:27;;;;;;;7.57;2.20;;;;;;;-139.38;100.00;63230.50;5050628;28;20206;-73
2021/08/23 09:07:55;;;;;;;7.80;2.23;;;;;;;-139.38;100.00;63230.50;5046273;28;20248;-73
2021/08/23 09:11:22;;;;;;;4.30;1.73;;;;;;;-139.38;100.00;63230.50;5048370;28;20206;-72
2021/08/23 09:14:57;;;;;;;3.03;2.07;;;;;;;-139.38;100.00;63230.50;5047623;28;20202;-73
2021/08/23 09:18:24;;;;;;;6.50;2.17;;;;;;;-139.38;100.00;63230.50;5047508;28;20234;-74
2021/08/23 09:22:02;;;;;;;2.50;1.80;;;;;;;-139.38;100.00;63230.50;5048432;28;20206;-73
2021/08/23 09:25:31;;;;;;;2.77;1.80;;;;;;;-139.38;100.00;63230.50;5048036;28;20215;-73
2021/08/23 09:29:02;;;;;;;5.53;2.47;;;;;;;-139.38;100.00;63230.50;5046755;28;20228;-74
2021/08/23 09:31:30;;;;;;;5.97;2.00;;;;;;;37.12;26.74;98461.00;5050877;28;20220;-74
2021/08/23 09:34:00;;;;;;;5.37;2.00;;;;;;;33.88;32.45;98438.50;5045925;28;20230;-75
2021/08/23 09:36:27;;;;;;;5.13;1.80;;;;;;;35.52;30.09;98453.47;5048369;28;20594;-74
2021/08/23 09:39:02;;;;;;;6.70;2.00;;;;;;;37.01;27.48;98457.09;5051046;28;20665;-74
2021/08/23 09:41:30;;;;;;;3.70;2.00;;;;;;;36.75;27.24;98456.88;5050246;28;20212;-74
2021/08/23 09:44:01;;;;;;;6.33;2.53;;;;;;;34.91;28.91;98457.50;5047150;28;20211;-73
2021/08/23 09:46:32;;;;;;;4.10;2.20;;;;;;;36.31;28.15;98453.34;5047237;28;20229;-73
2021/08/23 09:49:02;;;;;;;6.90;2.00;;;;;;;35.78;29.05;98451.09;5044114;28;20207;-72
2021/08/23 09:52:29;;;;;;;3.80;2.07;;;;;;;-139.38;100.00;63230.50;5045685;28;20243;-73
2021/08/23 09:56:07;;;;;;;4.03;2.20;;;;;;;-139.38;100.00;63230.50;5034967;28;20734;-74
2021/08/23 09:59:35;;;;;;;4.97;1.90;;;;;;;-139.38;100.00;63230.50;5046845;28;20205;-73
2021/08/23 10:03:01;;;;;;;4.30;2.10;;;;;;;-139.38;100.00;63230.50;5049899;28;20311;-72
2021/08/23 10:06:28;;;;;;;4.90;2.30;;;;;;;-139.38;100.00;63230.50;5049301;28;20224;-74
2021/08/23 10:09:54;;;;;;;5.17;2.00;;;;;;;-139.38;100.00;63230.50;5045231;28;20211;-75
2021/08/23 10:13:21;;;;;;;3.47;2.23;;;;;;;-139.38;100.00;63230.50;5055002;28;20574;-73
2021/08/23 10:16:47;;;;;;;6.23;2.47;;;;;;;-139.38;100.00;63230.50;5046960;28;20852;-72
2021/08/23 10:20:14;;;;;;;5.00;2.73;;;;;;;-139.38;100.00;63230.50;5055709;28;20213;-75
2021/08/23 10:23:41;;;;;;;5.27;2.40;;;;;;;-139.38;100.00;63230.50;5051230;28;20209;-73
2021/08/23 10:27:06;;;;;;;6.00;2.20;;;;;;;-139.38;nan;63230.50;5042176;28;20667;-75
2021/08/23 10:29:50;;;;;;;3.83;2.20;;;;;;;35.78;29.05;98451.09;5051002;28;20562;-73
2021/08/23 10:33:17;;;;;;;6.50;2.20;;;;;;;-139.38;100.00;63230.50;5048675;28;20232;-76
2021/08/23 10:36:48;;;;;;;6.80;2.70;;;;;;;-139.38;100.00;63230.50;5048430;28;20321;-74
2021/08/23 10:40:22;;;;;;;3.90;2.10;;;;;;;-139.38;100.00;63230.50;5051350;28;20217;-75
2021/08/23 10:43:49;;;;;;;3.77;2.20;;;;;;;-139.38;100.00;63230.50;5051116;28;20213;-74
2021/08/23 10:47:20;;;;;;;2.77;2.03;;;;;;;-139.38;100.00;63230.50;5050107;28;20234;-74
2021/08/23 10:50:57;;;;;;;3.97;2.23;;;;;;;-139.38;100.00;63230.50;5044089;28;20668;-75
2021/08/23 10:54:34;;;;;;;3.93;2.20;;;;;;;-139.38;100.00;63230.50;5045788;28;20209;-73
2021/08/23 10:58:04;;;;;;;4.50;2.00;;;;;;;-139.38;100.00;63230.50;5048356;28;20868;-74
2021/08/23 11:01:36;;;;;;;3.50;2.07;;;;;;;-139.38;100.00;63230.50;5050369;28;20299;-73
2021/08/23 11:05:06;;;;;;;2.37;2.00;;;;;;;-139.38;100.00;63230.50;5048736;28;20212;-74
2021/08/23 11:08:33;;;;;;;3.13;2.13;;;;;;;-139.38;100.00;63230.50;5046926;28;20847;-74
2021/08/23 11:12:11;;;;;;;2.83;1.90;;;;;;;-139.38;100.00;63230.50;5050238;28;20218;-75
2021/08/23 11:15:42;;;;;;;4.43;2.00;;;;;;;-139.38;100.00;63230.50;5050012;28;20587;-74
2021/08/23 11:19:11;;;;;;;3.60;1.87;;;;;;;-139.38;100.00;63230.50;5051087;28;20222;-79
2021/08/23 11:22:37;;;;;;;3.63;2.17;;;;;;;-139.38;100.00;63230.50;5048798;28;20212;-74
2021/08/23 11:26:03;;;;;;;3.10;2.10;;;;;;;-139.38;100.00;63230.50;5042525;28;20299;-75
2021/08/23 11:29:30;;;;;;;3.80;1.80;;;;;;;-139.38;100.00;63230.50;5043367;28;20578;-75
2021/08/23 11:32:56;;;;;;;2.47;1.77;;;;;;;-139.38;100.00;63230.50;5049012;28;20209;-74
2021/08/23 11:36:23;;;;;;;3.30;1.80;;;;;;;-139.38;100.00;63230.50;5048165;28;20219;-75
2021/08/23 11:39:49;;;;;;;2.22;1.70;;;;;;;-139.38;100.00;63230.50;5046549;28;20215;-75
2021/08/23 11:43:15;;;;;;;3.33;1.50;;;;;;;-139.38;100.00;63230.50;5052200;28;20217;-75
2021/08/23 11:46:42;;;;;;;1.90;1.70;;;;;;;-139.38;100.00;63230.50;5045062;28;20211;-74
2021/08/23 11:50:09;;;;;;;2.53;1.50;;;;;;;-139.38;100.00;63230.50;5045805;28;22242;-76
2021/08/23 11:53:30;;;;;;;2.60;1.70;;;;;;;-139.38;29.05;63230.50;5056111;28;20204;-74
2021/08/23 11:56:04;;;;;;;2.30;1.60;;;;;;;36.06;27.57;98435.16;5044194;28;20238;-75
2021/08/23 11:59:35;;;;;;;2.95;1.40;;;;;;;-139.38;100.00;63230.50;5050831;28;20209;-82
2021/08/23 12:03:12;;;;;;;2.40;1.50;;;;;;;-139.38;100.00;63230.50;5045335;28;20240;-74
2021/08/23 12:06:39;;;;;;;3.07;1.63;;;;;;;-139.38;100.00;63230.50;5043219;28;20627;-74
2021/08/23 12:10:07;;;;;;;2.58;1.55;;;;;;;-139.38;100.00;63230.50;5041441;28;20209;-74
2021/08/23 12:13:36;;;;;;;2.60;1.73;;;;;;;-139.38;100.00;63230.50;5044577;28;20567;-75
2021/08/23 12:17:10;;;;;;;3.30;1.80;;;;;;;-139.38;100.00;63230.50;5049973;28;20280;-75
2021/08/23 12:20:35;;;;;;;1.60;1.47;;;;;;;-139.38;100.00;63230.50;5043535;28;20220;-75
2021/08/23 12:24:02;;;;;;;2.60;1.60;;;;;;;-139.38;100.00;63230.50;5049881;28;20204;-75
2021/08/23 12:27:31;;;;;;;1.63;1.33;;;;;;;-139.38;100.00;63230.50;5051401;28;20225;-75
2021/08/23 12:31:04;;;;;;;1.23;1.10;;;;;;;-139.38;100.00;63230.50;5045171;28;20208;-74
2021/08/23 12:34:31;;;;;;;1.37;1.27;;;;;;;-139.38;100.00;63230.50;5044370;28;20221;-72
2021/08/23 12:37:58;;;;;;;1.80;1.20;;;;;;;-139.38;100.00;63230.50;5043913;28;20227;-74
2021/08/23 12:41:24;;;;;;;1.70;1.40;;;;;;;-139.38;100.00;63230.50;5039329;28;20205;-74
2021/08/23 12:44:53;;;;;;;2.23;1.17;;;;;;;-139.38;100.00;63230.50;5050389;28;20229;-73
2021/08/23 12:48:18;;;;;;;2.03;1.40;;;;;;;-139.38;100.00;63230.50;5047452;28;20237;-74
2021/08/23 12:51:45;;;;;;;1.83;1.20;;;;;;;-139.38;100.00;63230.50;5049552;28;21225;-75
2021/08/23 12:55:11;;;;;;;1.90;1.57;;;;;;;-139.38;100.00;63230.50;5044617;28;20222;-75
2021/08/23 12:58:37;;;;;;;1.67;1.47;;;;;;;-139.38;100.00;63230.50;5037685;28;20575;-74
2021/08/23 13:02:04;;;;;;;1.90;1.37;;;;;;;-139.38;100.00;63230.50;5049139;28;20196;-74
2021/08/23 13:05:30;;;;;;;1.90;1.23;;;;;;;-139.38;100.00;63230.50;5038899;28;20333;-72
2021/08/23 13:08:56;;;;;;;4.17;1.40;;;;;;;-139.38;100.00;63230.50;5046837;28;20230;-73
2021/08/23 13:12:22;;;;;;;1.33;1.20;;;;;;;-139.38;100.00;63230.50;5045788;28;20669;-73
2021/08/23 13:15:48;;;;;;;1.30;1.20;;;;;;;-139.38;100.00;63230.50;5046601;28;20292;-73
2021/08/23 13:19:15;;;;;;;2.37;1.17;;;;;;;-139.38;100.00;63230.50;5046592;28;20317;-71
2021/08/23 13:22:41;;;;;;;2.53;1.30;;;;;;;-139.38;100.00;63230.50;5044724;28;20205;-72
2021/08/23 13:26:07;;;;;;;2.13;1.20;;;;;;;-139.38;100.00;63230.50;5037930;28;20222;-71
2021/08/23 13:29:33;;;;;;;2.10;1.20;;;;;;;-139.38;100.00;63230.50;5042700;28;20201;-74
2021/08/23 13:33:00;;;;;;;1.60;1.33;;;;;;;-139.38;100.00;63230.50;5046248;28;20213;-69
2021/08/23 13:35:29;;;;;;;2.07;1.50;;;;;;;35.35;26.36;98416.84;5046139;28;20217;-71
2021/08/23 13:37:56;;;;;;;1.53;1.30;;;;;;;34.21;29.04;98402.44;5052140;28;20236;-70
2021/08/23 13:40:24;;;;;;;2.97;1.30;;;;;;;34.10;29.05;98399.28;5054172;28;20210;-73
2021/08/23 13:42:51;;;;;;;2.37;1.70;;;;;;;33.44;30.00;98394.13;5051837;28;20816;-71